sensor_id;sensor_type;location;lat;lon;timestamp;pressure;altitude;pressure_sealevel;temperature;humidity
35419;BME280;21525;41.240;16.500;2023-09-08T00:01:49;101346.50;;;30.99;51.00
35419;BME280;21525;41.240;16.500;2023-09-08T00:04:15;101348.31;;;31.29;49.75
35419;BME280;21525;41.240;16.500;2023-09-08T00:06:41;101351.66;;;31.21;49.61
35419;BME280;21525;41.240;16.500;2023-09-08T00:09:07;101348.50;;;30.66;50.40
35419;BME280;21525;41.240;16.500;2023-09-08T00:11:33;101350.94;;;30.49;51.09
35419;BME280;21525;41.240;16.500;2023-09-08T00:13:59;101357.09;;;30.60;50.66
35419;BME280;21525;41.240;16.500;2023-09-08T00:16:25;101347.78;;;30.64;50.41
35419;BME280;21525;41.240;16.500;2023-09-08T00:18:50;101350.31;;;30.15;51.85
35419;BME280;21525;41.240;16.500;2023-09-08T00:21:16;101353.34;;;29.57;53.28
35419;BME280;21525;41.240;16.500;2023-09-08T00:23:42;101345.59;;;29.75;52.12
35419;BME280;21525;41.240;16.500;2023-09-08T00:26:08;101345.59;;;30.07;52.11
35419;BME280;21525;41.240;16.500;2023-09-08T00:28:34;101346.69;;;29.29;53.43
35419;BME280;21525;41.240;16.500;2023-09-08T00:31:00;101344.25;;;29.37;53.28
35419;BME280;21525;41.240;16.500;2023-09-08T00:33:26;101343.78;;;29.32;53.99
35419;BME280;21525;41.240;16.500;2023-09-08T00:35:52;101347.66;;;29.51;53.79
35419;BME280;21525;41.240;16.500;2023-09-08T00:38:19;101346.59;;;29.42;53.72
35419;BME280;21525;41.240;16.500;2023-09-08T00:40:45;101352.28;;;29.37;53.89
35419;BME280;21525;41.240;16.500;2023-09-08T00:43:11;101352.41;;;29.36;54.53
35419;BME280;21525;41.240;16.500;2023-09-08T00:45:40;101344.97;;;29.39;54.61
35419;BME280;21525;41.240;16.500;2023-09-08T00:48:07;101346.19;;;29.35;54.85
35419;BME280;21525;41.240;16.500;2023-09-08T00:50:33;101341.72;;;29.25;55.50
35419;BME280;21525;41.240;16.500;2023-09-08T00:52:59;101335.69;;;29.00;56.79
35419;BME280;21525;41.240;16.500;2023-09-08T00:55:25;101339.44;;;28.75;57.95
35419;BME280;21525;41.240;16.500;2023-09-08T00:57:51;101334.53;;;29.25;56.28
35419;BME280;21525;41.240;16.500;2023-09-08T01:00:17;101325.06;;;28.65;58.36
35419;BME280;21525;41.240;16.500;2023-09-08T01:02:43;101323.63;;;28.72;58.87
35419;BME280;21525;41.240;16.500;2023-09-08T01:05:11;101327.28;;;29.05;57.75
35419;BME280;21525;41.240;16.500;2023-09-08T01:07:36;101321.91;;;29.05;57.75
35419;BME280;21525;41.240;16.500;2023-09-08T01:10:02;101318.03;;;28.98;58.29
35419;BME280;21525;41.240;16.500;2023-09-08T01:12:31;101326.59;;;29.35;57.66
35419;BME280;21525;41.240;16.500;2023-09-08T01:14:57;101330.13;;;29.35;56.94
35419;BME280;21525;41.240;16.500;2023-09-08T01:17:23;101327.47;;;29.24;57.89
35419;BME280;21525;41.240;16.500;2023-09-08T01:19:52;101319.59;;;29.23;57.75
35419;BME280;21525;41.240;16.500;2023-09-08T01:22:55;101314.22;;;29.23;58.51
35419;BME280;21525;41.240;16.500;2023-09-08T01:25:26;101318.44;;;29.25;58.26
35419;BME280;21525;41.240;16.500;2023-09-08T01:27:53;101315.19;;;29.22;58.38
35419;BME280;21525;41.240;16.500;2023-09-08T01:30:21;101316.41;;;29.18;58.24
35419;BME280;21525;41.240;16.500;2023-09-08T01:32:47;101303.41;;;29.13;58.84
35419;BME280;21525;41.240;16.500;2023-09-08T01:35:14;101307.34;;;28.87;59.84
35419;BME280;21525;41.240;16.500;2023-09-08T01:37:41;101307.59;;;29.27;58.90
35419;BME280;21525;41.240;16.500;2023-09-08T01:40:08;101304.75;;;28.96;59.92
35419;BME280;21525;41.240;16.500;2023-09-08T01:42:36;101304.44;;;28.90;60.68
35419;BME280;21525;41.240;16.500;2023-09-08T01:45:03;101305.59;;;29.19;59.71
35419;BME280;21525;41.240;16.500;2023-09-08T01:47:29;101303.63;;;29.21;59.47
35419;BME280;21525;41.240;16.500;2023-09-08T01:49:55;101309.00;;;29.21;59.73
35419;BME280;21525;41.240;16.500;2023-09-08T01:52:20;101307.31;;;29.09;60.09
35419;BME280;21525;41.240;16.500;2023-09-08T01:54:46;101301.00;;;28.76;60.54
35419;BME280;21525;41.240;16.500;2023-09-08T01:57:12;101298.69;;;28.94;60.87
35419;BME280;21525;41.240;16.500;2023-09-08T01:59:37;101298.56;;;28.96;60.75
35419;BME280;21525;41.240;16.500;2023-09-08T02:02:04;101298.69;;;29.37;59.19
35419;BME280;21525;41.240;16.500;2023-09-08T02:04:29;101290.75;;;29.04;60.91
35419;BME280;21525;41.240;16.500;2023-09-08T02:06:56;101289.91;;;28.70;61.69
35419;BME280;21525;41.240;16.500;2023-09-08T02:09:30;101290.38;;;29.08;60.96
35419;BME280;21525;41.240;16.500;2023-09-08T02:11:57;101280.78;;;28.95;61.74
35419;BME280;21525;41.240;16.500;2023-09-08T02:14:22;101277.63;;;28.79;62.17
35419;BME280;21525;41.240;16.500;2023-09-08T02:16:48;101282.00;;;28.80;62.38
35419;BME280;21525;41.240;16.500;2023-09-08T02:19:14;101281.53;;;28.30;64.09
35419;BME280;21525;41.240;16.500;2023-09-08T02:21:41;101287.38;;;28.68;62.81
35419;BME280;21525;41.240;16.500;2023-09-08T02:24:07;101276.81;;;28.56;63.78
35419;BME280;21525;41.240;16.500;2023-09-08T02:26:33;101284.06;;;28.76;63.57
35419;BME280;21525;41.240;16.500;2023-09-08T02:29:00;101290.28;;;28.76;63.01
35419;BME280;21525;41.240;16.500;2023-09-08T02:31:27;101289.69;;;28.73;62.48
35419;BME280;21525;41.240;16.500;2023-09-08T02:33:54;101295.88;;;29.07;61.39
35419;BME280;21525;41.240;16.500;2023-09-08T02:36:20;101289.59;;;28.86;62.36
35419;BME280;21525;41.240;16.500;2023-09-08T02:38:54;101293.41;;;29.15;61.62
35419;BME280;21525;41.240;16.500;2023-09-08T02:41:21;101286.53;;;29.33;60.71
35419;BME280;21525;41.240;16.500;2023-09-08T02:43:47;101286.84;;;29.19;61.13
35419;BME280;21525;41.240;16.500;2023-09-08T02:46:14;101286.38;;;28.81;61.87
35419;BME280;21525;41.240;16.500;2023-09-08T02:48:40;101286.63;;;29.00;61.41
35419;BME280;21525;41.240;16.500;2023-09-08T02:51:06;101291.16;;;28.88;62.63
35419;BME280;21525;41.240;16.500;2023-09-08T02:53:32;101287.56;;;29.10;61.92
35419;BME280;21525;41.240;16.500;2023-09-08T02:55:59;101279.19;;;28.92;62.33
35419;BME280;21525;41.240;16.500;2023-09-08T02:58:25;101275.59;;;28.49;64.83
35419;BME280;21525;41.240;16.500;2023-09-08T03:00:51;101282.03;;;28.46;64.90
35419;BME280;21525;41.240;16.500;2023-09-08T03:03:18;101275.31;;;28.74;64.37
35419;BME280;21525;41.240;16.500;2023-09-08T03:05:44;101275.06;;;28.66;64.90
35419;BME280;21525;41.240;16.500;2023-09-08T03:08:11;101272.97;;;29.14;62.72
35419;BME280;21525;41.240;16.500;2023-09-08T03:10:37;101283.19;;;29.09;63.05
35419;BME280;21525;41.240;16.500;2023-09-08T03:13:04;101285.03;;;29.08;63.32
35419;BME280;21525;41.240;16.500;2023-09-08T03:15:30;101276.41;;;28.71;65.01
35419;BME280;21525;41.240;16.500;2023-09-08T03:17:56;101271.81;;;28.85;64.60
35419;BME280;21525;41.240;16.500;2023-09-08T03:20:25;101272.53;;;28.75;64.96
35419;BME280;21525;41.240;16.500;2023-09-08T03:22:52;101273.50;;;28.63;65.33
35419;BME280;21525;41.240;16.500;2023-09-08T03:25:18;101271.06;;;28.71;66.25
35419;BME280;21525;41.240;16.500;2023-09-08T03:27:44;101270.19;;;28.93;64.89
35419;BME280;21525;41.240;16.500;2023-09-08T03:30:10;101275.19;;;28.64;65.93
35419;BME280;21525;41.240;16.500;2023-09-08T03:32:37;101273.63;;;28.73;65.62
35419;BME280;21525;41.240;16.500;2023-09-08T03:35:04;101270.31;;;28.81;66.38
35419;BME280;21525;41.240;16.500;2023-09-08T03:37:36;101269.59;;;28.67;66.02
35419;BME280;21525;41.240;16.500;2023-09-08T03:40:02;101273.22;;;29.00;65.41
35419;BME280;21525;41.240;16.500;2023-09-08T03:42:31;101268.50;;;28.92;66.33
35419;BME280;21525;41.240;16.500;2023-09-08T03:44:56;101270.38;;;28.58;67.06
35419;BME280;21525;41.240;16.500;2023-09-08T03:47:23;101273.13;;;28.68;65.73
35419;BME280;21525;41.240;16.500;2023-09-08T03:49:50;101278.34;;;28.92;64.37
35419;BME280;21525;41.240;16.500;2023-09-08T03:52:16;101280.56;;;28.64;65.78
35419;BME280;21525;41.240;16.500;2023-09-08T03:54:41;101277.03;;;28.64;65.68
35419;BME280;21525;41.240;16.500;2023-09-08T03:57:09;101271.81;;;28.85;65.89
35419;BME280;21525;41.240;16.500;2023-09-08T03:59:34;101277.38;;;28.93;65.60
35419;BME280;21525;41.240;16.500;2023-09-08T04:02:00;101275.28;;;29.07;64.26
35419;BME280;21525;41.240;16.500;2023-09-08T04:04:26;101274.47;;;28.62;66.52
35419;BME280;21525;41.240;16.500;2023-09-08T04:06:52;101274.97;;;28.34;67.95
35419;BME280;21525;41.240;16.500;2023-09-08T04:09:18;101271.69;;;28.41;67.72
35419;BME280;21525;41.240;16.500;2023-09-08T04:11:44;101272.91;;;28.49;68.35
35419;BME280;21525;41.240;16.500;2023-09-08T04:14:09;101265.94;;;28.80;66.83
35419;BME280;21525;41.240;16.500;2023-09-08T04:16:35;101267.16;;;28.75;66.14
35419;BME280;21525;41.240;16.500;2023-09-08T04:19:01;101275.31;;;28.74;66.22
35419;BME280;21525;41.240;16.500;2023-09-08T04:21:27;101265.59;;;28.84;65.50
35419;BME280;21525;41.240;16.500;2023-09-08T04:23:54;101269.44;;;28.13;68.39
35419;BME280;21525;41.240;16.500;2023-09-08T04:26:19;101260.88;;;28.43;67.25
35419;BME280;21525;41.240;16.500;2023-09-08T04:28:45;101257.69;;;28.38;67.86
35419;BME280;21525;41.240;16.500;2023-09-08T04:31:11;101257.44;;;28.19;67.86
35419;BME280;21525;41.240;16.500;2023-09-08T04:33:38;101262.44;;;28.23;68.54
35419;BME280;21525;41.240;16.500;2023-09-08T04:36:04;101256.25;;;28.56;66.87
35419;BME280;21525;41.240;16.500;2023-09-08T04:38:30;101258.66;;;28.70;65.69
35419;BME280;21525;41.240;16.500;2023-09-08T04:40:56;101259.38;;;28.61;66.40
35419;BME280;21525;41.240;16.500;2023-09-08T04:43:22;101262.53;;;28.77;65.00
35419;BME280;21525;41.240;16.500;2023-09-08T04:45:47;101272.25;;;29.01;63.77
35419;BME280;21525;41.240;16.500;2023-09-08T04:48:13;101269.22;;;29.49;61.92
35419;BME280;21525;41.240;16.500;2023-09-08T04:50:39;101265.22;;;29.32;62.05
35419;BME280;21525;41.240;16.500;2023-09-08T04:53:05;101280.06;;;29.47;61.13
35419;BME280;21525;41.240;16.500;2023-09-08T04:55:31;101268.13;;;30.14;58.77
35419;BME280;21525;41.240;16.500;2023-09-08T04:57:57;101271.53;;;30.46;56.68
35419;BME280;21525;41.240;16.500;2023-09-08T05:00:24;101277.91;;;30.24;57.73
35419;BME280;21525;41.240;16.500;2023-09-08T05:02:50;101279.72;;;29.61;59.03
35419;BME280;21525;41.240;16.500;2023-09-08T05:05:16;101278.75;;;30.25;58.00
35419;BME280;21525;41.240;16.500;2023-09-08T05:07:43;101279.44;;;30.88;55.62
35419;BME280;21525;41.240;16.500;2023-09-08T05:10:11;101283.13;;;32.41;50.87
35419;BME280;21525;41.240;16.500;2023-09-08T05:12:38;101282.84;;;32.99;48.29
35419;BME280;21525;41.240;16.500;2023-09-08T05:15:04;101287.78;;;33.21;47.07
35419;BME280;21525;41.240;16.500;2023-09-08T05:17:37;101283.28;;;33.40;46.99
35419;BME280;21525;41.240;16.500;2023-09-08T05:20:03;101280.38;;;33.94;45.79
35419;BME280;21525;41.240;16.500;2023-09-08T05:22:29;101285.28;;;34.43;44.29
35419;BME280;21525;41.240;16.500;2023-09-08T05:24:55;101283.66;;;35.00;42.85
35419;BME280;21525;41.240;16.500;2023-09-08T05:27:22;101296.22;;;34.75;42.68
35419;BME280;21525;41.240;16.500;2023-09-08T05:29:48;101296.31;;;34.99;42.41
35419;BME280;21525;41.240;16.500;2023-09-08T05:32:14;101296.94;;;35.60;41.81
35419;BME280;21525;41.240;16.500;2023-09-08T05:34:43;101297.53;;;36.43;39.73
35419;BME280;21525;41.240;16.500;2023-09-08T05:37:08;101299.06;;;36.85;39.53
35419;BME280;21525;41.240;16.500;2023-09-08T05:39:35;101307.03;;;36.86;38.63
35419;BME280;21525;41.240;16.500;2023-09-08T05:42:01;101313.97;;;37.43;38.28
35419;BME280;21525;41.240;16.500;2023-09-08T05:44:26;101316.81;;;37.72;37.71
35419;BME280;21525;41.240;16.500;2023-09-08T05:46:53;101315.75;;;37.36;37.81
35419;BME280;21525;41.240;16.500;2023-09-08T05:49:20;101307.03;;;38.23;36.57
35419;BME280;21525;41.240;16.500;2023-09-08T05:51:46;101304.59;;;38.28;36.88
35419;BME280;21525;41.240;16.500;2023-09-08T05:54:12;101307.13;;;38.30;36.20
35419;BME280;21525;41.240;16.500;2023-09-08T05:56:38;101299.66;;;38.61;35.81
35419;BME280;21525;41.240;16.500;2023-09-08T05:59:04;101301.75;;;38.95;34.57
35419;BME280;21525;41.240;16.500;2023-09-08T06:01:31;101305.13;;;39.55;34.24
35419;BME280;21525;41.240;16.500;2023-09-08T06:03:59;101296.47;;;39.09;34.64
35419;BME280;21525;41.240;16.500;2023-09-08T06:06:27;101296.94;;;39.12;33.91
35419;BME280;21525;41.240;16.500;2023-09-08T06:08:53;101292.84;;;39.66;33.56
35419;BME280;21525;41.240;16.500;2023-09-08T06:11:19;101278.84;;;39.90;33.35
35419;BME280;21525;41.240;16.500;2023-09-08T06:13:45;101286.19;;;40.58;32.36
35419;BME280;21525;41.240;16.500;2023-09-08T06:16:11;101283.88;;;40.55;32.20
35419;BME280;21525;41.240;16.500;2023-09-08T06:18:38;101280.22;;;40.83;31.90
35419;BME280;21525;41.240;16.500;2023-09-08T06:21:10;101281.63;;;40.72;31.87
35419;BME280;21525;41.240;16.500;2023-09-08T06:23:36;101277.34;;;41.11;31.61
35419;BME280;21525;41.240;16.500;2023-09-08T06:26:02;101285.44;;;41.78;30.33
35419;BME280;21525;41.240;16.500;2023-09-08T06:28:31;101282.50;;;41.73;30.37
35419;BME280;21525;41.240;16.500;2023-09-08T06:30:57;101285.44;;;41.85;30.29
35419;BME280;21525;41.240;16.500;2023-09-08T06:33:23;101285.97;;;42.46;29.04
35419;BME280;21525;41.240;16.500;2023-09-08T06:35:49;101280.16;;;41.64;29.98
35419;BME280;21525;41.240;16.500;2023-09-08T06:38:15;101286.25;;;41.46;29.71
35419;BME280;21525;41.240;16.500;2023-09-08T06:40:41;101273.75;;;42.55;28.50
35419;BME280;21525;41.240;16.500;2023-09-08T06:43:07;101289.94;;;42.50;28.37
35419;BME280;21525;41.240;16.500;2023-09-08T06:45:55;101289.19;;;42.81;28.71
35419;BME280;21525;41.240;16.500;2023-09-08T06:48:22;101287.31;;;42.82;28.95
35419;BME280;21525;41.240;16.500;2023-09-08T06:50:48;101282.66;;;43.20;27.73
35419;BME280;21525;41.240;16.500;2023-09-08T06:53:14;101291.00;;;42.94;28.00
35419;BME280;21525;41.240;16.500;2023-09-08T06:55:41;101294.03;;;41.88;29.05
35419;BME280;21525;41.240;16.500;2023-09-08T06:58:08;101302.22;;;41.55;29.68
35419;BME280;21525;41.240;16.500;2023-09-08T07:00:34;101290.44;;;41.22;30.32
35419;BME280;21525;41.240;16.500;2023-09-08T07:03:00;101295.00;;;40.60;31.19
35419;BME280;21525;41.240;16.500;2023-09-08T07:05:27;101289.59;;;40.74;31.41
35419;BME280;21525;41.240;16.500;2023-09-08T07:07:53;101294.06;;;40.12;31.91
35419;BME280;21525;41.240;16.500;2023-09-08T07:10:19;101298.91;;;39.61;32.29
35419;BME280;21525;41.240;16.500;2023-09-08T07:12:46;101296.09;;;40.04;32.24
35419;BME280;21525;41.240;16.500;2023-09-08T07:15:13;101301.91;;;39.73;32.66
35419;BME280;21525;41.240;16.500;2023-09-08T07:17:38;101301.09;;;40.28;32.06
35419;BME280;21525;41.240;16.500;2023-09-08T07:20:05;101310.94;;;39.73;32.53
35419;BME280;21525;41.240;16.500;2023-09-08T07:22:31;101307.88;;;39.83;32.49
35419;BME280;21525;41.240;16.500;2023-09-08T07:24:57;101317.72;;;39.84;32.23
35419;BME280;21525;41.240;16.500;2023-09-08T07:27:23;101314.72;;;39.51;32.29
35419;BME280;21525;41.240;16.500;2023-09-08T07:29:48;101307.78;;;39.97;32.34
35419;BME280;21525;41.240;16.500;2023-09-08T07:32:16;101316.28;;;39.60;32.43
35419;BME280;21525;41.240;16.500;2023-09-08T07:34:42;101325.19;;;39.75;32.45
35419;BME280;21525;41.240;16.500;2023-09-08T07:37:08;101322.25;;;39.49;32.43
35419;BME280;21525;41.240;16.500;2023-09-08T07:39:33;101320.78;;;39.74;32.48
35419;BME280;21525;41.240;16.500;2023-09-08T07:42:02;101322.59;;;39.67;32.70
35419;BME280;21525;41.240;16.500;2023-09-08T07:44:28;101333.47;;;39.60;32.48
35419;BME280;21525;41.240;16.500;2023-09-08T07:46:54;101323.59;;;39.59;32.74
35419;BME280;21525;41.240;16.500;2023-09-08T07:49:22;101331.91;;;39.37;32.79
35419;BME280;21525;41.240;16.500;2023-09-08T07:51:48;101341.38;;;39.41;33.32
35419;BME280;21525;41.240;16.500;2023-09-08T07:54:14;101336.38;;;39.59;32.90
35419;BME280;21525;41.240;16.500;2023-09-08T07:56:40;101345.91;;;39.12;33.56
35419;BME280;21525;41.240;16.500;2023-09-08T07:59:06;101346.69;;;39.63;33.23
35419;BME280;21525;41.240;16.500;2023-09-08T08:01:32;101339.69;;;39.40;33.09
35419;BME280;21525;41.240;16.500;2023-09-08T08:03:58;101336.34;;;38.87;33.48
35419;BME280;21525;41.240;16.500;2023-09-08T08:06:24;101341.91;;;38.79;34.02
35419;BME280;21525;41.240;16.500;2023-09-08T08:08:49;101331.91;;;38.64;34.60
35419;BME280;21525;41.240;16.500;2023-09-08T08:11:16;101339.09;;;38.87;34.55
35419;BME280;21525;41.240;16.500;2023-09-08T08:13:43;101337.09;;;39.10;34.03
35419;BME280;21525;41.240;16.500;2023-09-08T08:16:09;101347.81;;;38.68;34.98
35419;BME280;21525;41.240;16.500;2023-09-08T08:18:35;101347.91;;;38.74;34.65
35419;BME280;21525;41.240;16.500;2023-09-08T08:21:00;101355.28;;;38.51;34.84
35419;BME280;21525;41.240;16.500;2023-09-08T08:23:29;101348.34;;;38.48;34.78
35419;BME280;21525;41.240;16.500;2023-09-08T08:25:56;101345.81;;;39.06;34.14
35419;BME280;21525;41.240;16.500;2023-09-08T08:28:22;101342.28;;;38.76;34.94
35419;BME280;21525;41.240;16.500;2023-09-08T08:30:49;101347.56;;;39.13;34.39
35419;BME280;21525;41.240;16.500;2023-09-08T08:33:15;101348.91;;;39.39;33.98
35419;BME280;21525;41.240;16.500;2023-09-08T08:35:40;101355.72;;;39.28;34.00
35419;BME280;21525;41.240;16.500;2023-09-08T08:38:06;101351.63;;;39.39;34.43
35419;BME280;21525;41.240;16.500;2023-09-08T08:40:32;101350.69;;;39.31;34.84
35419;BME280;21525;41.240;16.500;2023-09-08T08:42:59;101353.72;;;38.71;35.32
35419;BME280;21525;41.240;16.500;2023-09-08T08:45:27;101358.75;;;38.30;36.17
35419;BME280;21525;41.240;16.500;2023-09-08T08:47:55;101360.56;;;38.00;36.64
35419;BME280;21525;41.240;16.500;2023-09-08T08:50:21;101355.69;;;38.33;36.12
35419;BME280;21525;41.240;16.500;2023-09-08T08:52:47;101360.34;;;38.02;36.88
35419;BME280;21525;41.240;16.500;2023-09-08T08:55:13;101356.00;;;37.47;37.55
35419;BME280;21525;41.240;16.500;2023-09-08T08:57:42;101353.53;;;37.37;38.54
35419;BME280;21525;41.240;16.500;2023-09-08T09:00:12;101355.00;;;37.17;38.59
35419;BME280;21525;41.240;16.500;2023-09-08T09:02:42;101361.44;;;37.16;38.92
35419;BME280;21525;41.240;16.500;2023-09-08T09:05:12;101360.19;;;37.35;38.74
35419;BME280;21525;41.240;16.500;2023-09-08T09:07:42;101358.72;;;37.47;38.39
35419;BME280;21525;41.240;16.500;2023-09-08T09:10:08;101354.66;;;36.81;39.42
35419;BME280;21525;41.240;16.500;2023-09-08T09:12:36;101355.72;;;36.63;40.44
35419;BME280;21525;41.240;16.500;2023-09-08T09:15:03;101349.66;;;37.00;40.13
35419;BME280;21525;41.240;16.500;2023-09-08T09:17:32;101353.31;;;37.92;38.92
35419;BME280;21525;41.240;16.500;2023-09-08T09:20:17;101352.16;;;37.41;39.38
35419;BME280;21525;41.240;16.500;2023-09-08T09:22:49;101347.91;;;36.68;40.50
35419;BME280;21525;41.240;16.500;2023-09-08T09:25:28;101343.66;;;37.21;40.09
35419;BME280;21525;41.240;16.500;2023-09-08T09:27:58;101344.13;;;37.25;39.82
35419;BME280;21525;41.240;16.500;2023-09-08T09:30:25;101336.53;;;37.20;40.24
35419;BME280;21525;41.240;16.500;2023-09-08T09:33:04;101339.06;;;37.22;40.43
35419;BME280;21525;41.240;16.500;2023-09-08T09:35:52;101350.41;;;37.17;40.65
35419;BME280;21525;41.240;16.500;2023-09-08T09:38:19;101350.09;;;37.12;40.59
35419;BME280;21525;41.240;16.500;2023-09-08T09:40:47;101345.47;;;37.29;40.54
35419;BME280;21525;41.240;16.500;2023-09-08T09:43:14;101350.34;;;37.03;41.13
35419;BME280;21525;41.240;16.500;2023-09-08T09:45:41;101341.34;;;36.63;41.42
35419;BME280;21525;41.240;16.500;2023-09-08T09:48:09;101345.31;;;36.12;42.98
35419;BME280;21525;41.240;16.500;2023-09-08T09:50:38;101351.38;;;36.22;42.90
35419;BME280;21525;41.240;16.500;2023-09-08T09:53:15;101341.75;;;36.19;43.53
35419;BME280;21525;41.240;16.500;2023-09-08T09:55:43;101341.56;;;36.13;43.78
35419;BME280;21525;41.240;16.500;2023-09-08T09:58:10;101344.00;;;35.17;45.84
35419;BME280;21525;41.240;16.500;2023-09-08T10:00:36;101342.78;;;36.02;44.89
35419;BME280;21525;41.240;16.500;2023-09-08T10:03:04;101343.59;;;36.11;44.57
35419;BME280;21525;41.240;16.500;2023-09-08T10:05:30;101330.25;;;36.33;44.12
35419;BME280;21525;41.240;16.500;2023-09-08T10:07:56;101338.78;;;36.61;43.60
35419;BME280;21525;41.240;16.500;2023-09-08T10:10:22;101339.91;;;35.79;44.96
35419;BME280;21525;41.240;16.500;2023-09-08T10:12:54;101347.63;;;34.06;49.12
35419;BME280;21525;41.240;16.500;2023-09-08T10:15:23;101339.59;;;35.08;47.88
35419;BME280;21525;41.240;16.500;2023-09-08T10:17:54;101325.19;;;35.74;46.19
35419;BME280;21525;41.240;16.500;2023-09-08T10:20:24;101334.81;;;36.33;45.36
35419;BME280;21525;41.240;16.500;2023-09-08T10:23:06;101335.84;;;36.79;44.22
35419;BME280;21525;41.240;16.500;2023-09-08T10:25:35;101336.03;;;35.90;45.83
35419;BME280;21525;41.240;16.500;2023-09-08T10:28:03;101336.50;;;35.53;46.87
35419;BME280;21525;41.240;16.500;2023-09-08T10:30:30;101324.66;;;36.35;45.56
35419;BME280;21525;41.240;16.500;2023-09-08T10:32:58;101329.25;;;35.69;47.02
35419;BME280;21525;41.240;16.500;2023-09-08T10:35:24;101323.94;;;36.41;45.93
35419;BME280;21525;41.240;16.500;2023-09-08T10:37:50;101329.22;;;35.37;48.56
35419;BME280;21525;41.240;16.500;2023-09-08T10:40:23;101331.47;;;34.65;50.60
35419;BME280;21525;41.240;16.500;2023-09-08T10:43:08;101317.28;;;35.14;50.06
35419;BME280;21525;41.240;16.500;2023-09-08T10:45:35;101326.84;;;35.42;49.01
35419;BME280;21525;41.240;16.500;2023-09-08T10:48:01;101322.63;;;36.21;47.23
35419;BME280;21525;41.240;16.500;2023-09-08T10:50:35;101326.38;;;35.71;48.24
35419;BME280;21525;41.240;16.500;2023-09-08T10:55:46;101323.97;;;36.09;46.58
35419;BME280;21525;41.240;16.500;2023-09-08T10:58:31;101327.38;;;35.54;47.12
35419;BME280;21525;41.240;16.500;2023-09-08T11:01:03;101324.69;;;35.94;46.51
35419;BME280;21525;41.240;16.500;2023-09-08T11:06:11;101327.22;;;35.63;48.43
35419;BME280;21525;41.240;16.500;2023-09-08T11:08:40;101334.38;;;34.72;49.15
35419;BME280;21525;41.240;16.500;2023-09-08T11:11:06;101326.69;;;34.59;50.88
35419;BME280;21525;41.240;16.500;2023-09-08T11:13:32;101339.72;;;34.64;51.20
35419;BME280;21525;41.240;16.500;2023-09-08T11:15:58;101334.53;;;33.75;53.98
35419;BME280;21525;41.240;16.500;2023-09-08T11:18:27;101326.03;;;33.88;55.52
35419;BME280;21525;41.240;16.500;2023-09-08T11:20:54;101339.22;;;34.17;53.79
35419;BME280;21525;41.240;16.500;2023-09-08T11:23:20;101333.75;;;33.20;58.01
35419;BME280;21525;41.240;16.500;2023-09-08T11:25:46;101332.13;;;33.90;55.53
35419;BME280;21525;41.240;16.500;2023-09-08T11:28:12;101336.75;;;33.17;57.87
35419;BME280;21525;41.240;16.500;2023-09-08T11:30:42;101338.47;;;33.18;58.69
35419;BME280;21525;41.240;16.500;2023-09-08T11:33:18;101339.53;;;32.70;60.04
35419;BME280;21525;41.240;16.500;2023-09-08T11:35:47;101331.44;;;33.34;58.24
35419;BME280;21525;41.240;16.500;2023-09-08T11:38:13;101328.34;;;34.00;55.68
35419;BME280;21525;41.240;16.500;2023-09-08T11:40:40;101326.50;;;33.02;59.36
35419;BME280;21525;41.240;16.500;2023-09-08T11:43:06;101330.97;;;33.57;58.16
35419;BME280;21525;41.240;16.500;2023-09-08T11:45:36;101321.88;;;33.93;56.09
35419;BME280;21525;41.240;16.500;2023-09-08T11:48:05;101323.13;;;33.81;56.42
35419;BME280;21525;41.240;16.500;2023-09-08T11:50:31;101314.88;;;33.65;57.71
35419;BME280;21525;41.240;16.500;2023-09-08T11:52:57;101318.09;;;33.51;56.92
35419;BME280;21525;41.240;16.500;2023-09-08T11:55:28;101316.88;;;33.18;59.36
35419;BME280;21525;41.240;16.500;2023-09-08T11:57:55;101320.78;;;33.86;56.64
35419;BME280;21525;41.240;16.500;2023-09-08T12:00:26;101318.38;;;32.85;61.42
35419;BME280;21525;41.240;16.500;2023-09-08T12:02:52;101323.97;;;33.19;60.73
35419;BME280;21525;41.240;16.500;2023-09-08T12:05:26;101312.31;;;33.81;57.86
35419;BME280;21525;41.240;16.500;2023-09-08T12:07:53;101313.25;;;33.36;57.29
35419;BME280;21525;41.240;16.500;2023-09-08T12:10:20;101309.34;;;33.21;58.70
35419;BME280;21525;41.240;16.500;2023-09-08T12:12:51;101309.25;;;33.76;56.33
35419;BME280;21525;41.240;16.500;2023-09-08T12:15:34;101312.28;;;32.83;59.07
35419;BME280;21525;41.240;16.500;2023-09-08T12:18:01;101305.38;;;33.61;56.93
35419;BME280;21525;41.240;16.500;2023-09-08T12:20:29;101310.53;;;32.91;59.79
35419;BME280;21525;41.240;16.500;2023-09-08T12:22:58;101297.75;;;33.56;58.39
35419;BME280;21525;41.240;16.500;2023-09-08T12:25:24;101293.50;;;34.15;55.85
35419;BME280;21525;41.240;16.500;2023-09-08T12:27:50;101303.59;;;34.31;55.09
35419;BME280;21525;41.240;16.500;2023-09-08T12:30:19;101300.28;;;34.19;54.99
35419;BME280;21525;41.240;16.500;2023-09-08T12:32:47;101296.00;;;34.09;55.82
35419;BME280;21525;41.240;16.500;2023-09-08T12:35:20;101297.38;;;34.73;53.35
35419;BME280;21525;41.240;16.500;2023-09-08T12:37:47;101284.56;;;34.15;54.45
35419;BME280;21525;41.240;16.500;2023-09-08T12:40:13;101290.47;;;34.18;55.06
35419;BME280;21525;41.240;16.500;2023-09-08T12:42:41;101286.38;;;32.72;60.25
35419;BME280;21525;41.240;16.500;2023-09-08T12:45:07;101292.97;;;32.87;59.54
35419;BME280;21525;41.240;16.500;2023-09-08T12:47:33;101293.75;;;32.43;61.90